Time,TemperatureF,DewpointF,PressureIn,WindDirection,WindDirectionDegrees,WindSpeedMPH,WindSpeedGustMPH,Humidity,HourlyPrecipIn,Conditions,Clouds,dailyrainin,SoftwareType,DateUTC
2013-08-02 00:02:00,58.8,49.5,31.87,NW,325,0.0,0.0,71,0.00,,,0.00,VWS V14.01,2013-08-02 04:02:00,
2013-08-02 00:03:00,58.8,49.5,31.87,NW,325,0.0,0.0,71,0.00,,,0.00,VWS V14.01,2013-08-02 04:03:00,
2013-08-02 00:07:00,58.8,49.5,31.87,NW,325,0.0,0.0,71,0.00,,,0.00,VWS V14.01,2013-08-02 04:07:00,
2013-08-02 00:11:00,58.6,49.3,31.87,NW,325,0.0,0.0,71,0.00,,,0.00,VWS V14.01,2013-08-02 04:11:00,
2013-08-02 00:17:00,58.5,49.5,31.87,NW,325,0.0,0.0,72,0.00,,,0.00,VWS V14.01,2013-08-02 04:17:00,
2013-08-02 00:22:00,58.5,49.5,31.87,NW,325,0.0,0.0,72,0.00,,,0.00,VWS V14.01,2013-08-02 04:22:00,
2013-08-02 00:28:00,58.5,49.8,31.87,NW,325,0.0,0.0,73,0.00,,,0.00,VWS V14.01,2013-08-02 04:28:00,
2013-08-02 00:33:00,58.3,49.7,31.87,NW,325,0.0,0.0,73,0.00,,,0.00,VWS V14.01,2013-08-02 04:33:00,
2013-08-02 00:39:00,58.1,49.5,31.87,NW,325,0.0,0.0,73,0.00,,,0.00,VWS V14.01,2013-08-02 04:39:00,
2013-08-02 00:45:00,58.1,49.5,31.87,NW,325,0.0,0.0,73,0.00,,,0.00,VWS V14.01,2013-08-02 04:45:00,
2013-08-02 00:51:00,58.1,49.5,31.87,NW,325,0.0,0.0,73,0.00,,,0.00,VWS V14.01,2013-08-02 04:51:00,
2013-08-02 00:57:00,57.9,49.7,31.87,NW,325,0.0,0.0,74,0.00,,,0.00,VWS V14.01,2013-08-02 04:57:00,
2013-08-02 01:02:00,57.9,49.7,31.87,NW,325,0.0,0.0,74,0.00,,,0.00,VWS V14.01,2013-08-02 05:02:00,
2013-08-02 01:07:00,57.9,49.7,31.87,NW,325,0.0,0.0,74,0.00,,,0.00,VWS V14.01,2013-08-02 05:07:00,
2013-08-02 01:12:00,57.7,49.5,31.87,NW,323,0.0,0.0,74,0.00,,,0.00,VWS V14.01,2013-08-02 05:12:00,
2013-08-02 01:18:00,57.6,49.3,31.87,NW,325,0.0,0.0,74,0.00,,,0.00,VWS V14.01,2013-08-02 05:18:00,
2013-08-02 01:24:00,57.6,49.3,31.87,NW,324,0.0,0.0,74,0.00,,,0.00,VWS V14.01,2013-08-02 05:24:00,
2013-08-02 01:29:00,57.4,49.2,31.87,NW,325,0.0,0.0,74,0.00,,,0.00,VWS V14.01,2013-08-02 05:29:00,
2013-08-02 01:36:00,57.4,49.2,31.87,NW,325,0.0,0.0,74,0.00,,,0.00,VWS V14.01,2013-08-02 05:36:00,
2013-08-02 01:42:00,57.4,49.2,31.87,NW,325,0.0,0.0,74,0.00,,,0.00,VWS V14.01,2013-08-02 05:42:00,
2013-08-02 01:48:00,57.2,49.0,31.87,NW,325,0.0,0.0,74,0.00,,,0.00,VWS V14.01,2013-08-02 05:48:00,
2013-08-02 01:53:00,57.2,49.0,31.87,NW,325,0.0,0.0,74,0.00,,,0.00,VWS V14.01,2013-08-02 05:53:00,
2013-08-02 01:59:00,57.0,49.2,31.87,NW,325,0.0,0.0,75,0.00,,,0.00,VWS V14.01,2013-08-02 05:59:00,
2013-08-02 02:04:00,56.8,49.0,31.87,NW,325,0.0,0.0,75,0.00,,,0.00,VWS V14.01,2013-08-02 06:04:00,
2013-08-02 02:10:00,56.8,49.0,31.87,NW,325,0.0,0.0,75,0.00,,,0.00,VWS V14.01,2013-08-02 06:10:00,
2013-08-02 02:16:00,56.8,49.0,31.87,NW,325,0.0,0.0,75,0.00,,,0.00,VWS V14.01,2013-08-02 06:16:00,
2013-08-02 02:21:00,56.8,49.0,31.87,NW,325,0.0,0.0,75,0.00,,,0.00,VWS V14.01,2013-08-02 06:21:00,
2013-08-02 02:26:00,56.7,48.8,31.87,NW,325,0.0,0.0,75,0.00,,,0.00,VWS V14.01,2013-08-02 06:26:00,
2013-08-02 02:32:00,56.5,48.7,31.87,NW,325,0.0,0.0,75,0.00,,,0.00,VWS V14.01,2013-08-02 06:32:00,
2013-08-02 02:37:00,56.3,48.5,31.87,NW,325,0.0,0.0,75,0.00,,,0.00,VWS V14.01,2013-08-02 06:37:00,
2013-08-02 02:42:00,56.3,48.5,31.87,NW,325,0.0,0.0,75,0.00,,,0.00,VWS V14.01,2013-08-02 06:42:00,
2013-08-02 02:48:00,56.3,48.5,31.87,NW,325,0.0,0.0,75,0.00,,,0.00,VWS V14.01,2013-08-02 06:48:00,
2013-08-02 02:53:00,56.5,49.0,31.87,NW,325,0.0,0.0,76,0.00,,,0.00,VWS V14.01,2013-08-02 06:53:00,
2013-08-02 02:58:00,56.5,49.0,31.87,NW,325,0.0,0.0,76,0.00,,,0.00,VWS V14.01,2013-08-02 06:58:00,
2013-08-02 03:04:00,56.5,49.0,31.87,NW,325,0.0,0.0,76,0.00,,,0.00,VWS V14.01,2013-08-02 07:04:00,
2013-08-02 03:11:00,56.3,48.8,31.87,NW,325,0.0,0.0,76,0.00,,,0.00,VWS V14.01,2013-08-02 07:11:00,
2013-08-02 03:17:00,56.3,48.8,31.87,NW,325,0.0,0.0,76,0.00,,,0.00,VWS V14.01,2013-08-02 07:17:00,
2013-08-02 03:22:00,56.3,48.8,31.87,NW,325,0.0,0.0,76,0.00,,,0.00,VWS V14.01,2013-08-02 07:22:00,
2013-08-02 03:27:00,56.1,48.7,31.87,NW,325,0.0,0.0,76,0.00,,,0.00,VWS V14.01,2013-08-02 07:27:00,
2013-08-02 03:32:00,55.9,48.5,31.87,NW,325,0.0,0.0,76,0.00,,,0.00,VWS V14.01,2013-08-02 07:32:00,
2013-08-02 03:38:00,55.6,48.2,31.87,NW,325,0.0,0.0,76,0.00,,,0.00,VWS V14.01,2013-08-02 07:38:00,
2013-08-02 03:43:00,55.6,48.2,31.87,NW,325,0.0,0.0,76,0.00,,,0.00,VWS V14.01,2013-08-02 07:43:00,
2013-08-02 03:49:00,55.2,48.2,31.87,NW,325,0.0,0.0,77,0.00,,,0.00,VWS V14.01,2013-08-02 07:49:00,
2013-08-02 03:54:00,55.4,48.3,31.87,NW,325,0.0,0.0,77,0.00,,,0.00,VWS V14.01,2013-08-02 07:54:00,
2013-08-02 03:59:00,55.2,48.5,31.87,NW,325,0.0,0.0,78,0.00,,,0.00,VWS V14.01,2013-08-02 07:59:00,
2013-08-02 04:04:00,55.4,48.7,31.87,NW,325,0.0,0.0,78,0.00,,,0.00,VWS V14.01,2013-08-02 08:04:00,
2013-08-02 04:09:00,55.4,48.7,31.87,NW,325,0.0,0.0,78,0.00,,,0.00,VWS V14.01,2013-08-02 08:09:00,
2013-08-02 04:15:00,55.4,48.7,31.87,NW,325,0.0,0.0,78,0.00,,,0.00,VWS V14.01,2013-08-02 08:15:00,
2013-08-02 04:21:00,55.4,48.7,31.87,NW,325,0.0,0.0,78,0.00,,,0.00,VWS V14.01,2013-08-02 08:21:00,
2013-08-02 04:27:00,55.6,49.2,31.87,NW,325,0.0,0.0,79,0.00,,,0.00,VWS V14.01,2013-08-02 08:27:00,
2013-08-02 04:33:00,55.6,49.2,31.87,NW,324,0.0,0.0,79,0.00,,,0.00,VWS V14.01,2013-08-02 08:33:00,
2013-08-02 04:38:00,55.4,49.0,31.87,NW,325,0.0,0.0,79,0.00,,,0.00,VWS V14.01,2013-08-02 08:38:00,
2013-08-02 04:43:00,55.2,48.8,31.87,NW,325,0.0,0.0,79,0.00,,,0.00,VWS V14.01,2013-08-02 08:43:00,
2013-08-02 04:48:00,55.8,49.4,31.87,NW,325,0.0,0.0,79,0.00,,,0.00,VWS V14.01,2013-08-02 08:48:00,
2013-08-02 04:53:00,56.1,49.7,31.87,NW,325,0.0,0.0,79,0.00,,,0.00,VWS V14.01,2013-08-02 08:53:00,
2013-08-02 04:58:00,56.3,50.2,31.87,NW,325,0.0,0.0,80,0.00,,,0.00,VWS V14.01,2013-08-02 08:58:00,
2013-08-02 05:03:00,56.7,50.6,31.87,NE,40,0.0,0.0,80,0.00,,,0.00,VWS V14.01,2013-08-02 09:03:00,
2013-08-02 05:09:00,56.7,50.6,31.87,NNW,328,0.0,0.0,80,0.00,,,0.00,VWS V14.01,2013-08-02 09:09:00,
2013-08-02 05:14:00,56.8,50.7,31.87,NNW,328,0.0,0.0,80,0.00,,,0.00,VWS V14.01,2013-08-02 09:14:00,
2013-08-02 05:20:00,57.0,50.9,31.87,NNW,328,0.0,0.0,80,0.00,,,0.00,VWS V14.01,2013-08-02 09:20:00,
2013-08-02 05:26:00,57.4,51.3,31.87,NNW,328,0.0,0.0,80,0.00,,,0.00,VWS V14.01,2013-08-02 09:26:00,
2013-08-02 05:32:00,57.6,51.5,31.87,NNW,328,0.0,0.0,80,0.00,,,0.00,VWS V14.01,2013-08-02 09:32:00,
2013-08-02 05:37:00,57.7,52.0,31.87,NNW,328,0.0,0.0,81,0.00,,,0.00,VWS V14.01,2013-08-02 09:37:00,
2013-08-02 05:43:00,58.1,52.3,31.87,NNW,328,0.0,0.0,81,0.00,,,0.00,VWS V14.01,2013-08-02 09:43:00,
2013-08-02 05:48:00,58.1,52.3,31.87,NNW,328,0.0,0.0,81,0.00,,,0.00,VWS V14.01,2013-08-02 09:48:00,
2013-08-02 05:54:00,58.5,52.7,31.87,WSW,257,0.0,0.0,81,0.00,,,0.00,VWS V14.01,2013-08-02 09:54:00,
2013-08-02 06:01:00,58.8,53.3,31.87,South,180,0.0,0.0,82,0.00,,,0.00,VWS V14.01,2013-08-02 10:01:00,
2013-08-02 06:07:00,59.2,53.4,31.87,South,180,0.0,0.0,81,0.00,,,0.00,VWS V14.01,2013-08-02 10:07:00,
2013-08-02 06:12:00,59.2,53.4,31.87,SSW,196,0.0,5.6,81,0.00,,,0.00,VWS V14.01,2013-08-02 10:12:00,
2013-08-02 06:18:00,59.4,53.5,31.87,SE,138,0.0,0.0,81,0.00,,,0.00,VWS V14.01,2013-08-02 10:18:00,
2013-08-02 06:23:00,59.7,53.9,31.87,SSW,209,0.0,0.0,81,0.00,,,0.00,VWS V14.01,2013-08-02 10:23:00,
2013-08-02 06:29:00,59.7,53.9,31.87,SSW,209,0.0,0.0,81,0.00,,,0.00,VWS V14.01,2013-08-02 10:29:00,
2013-08-02 06:34:00,59.7,53.5,31.87,SSW,196,0.0,6.7,80,0.00,,,0.00,VWS V14.01,2013-08-02 10:34:00,
2013-08-02 06:41:00,60.1,53.9,31.87,ESE,113,0.0,0.0,80,0.00,,,0.00,VWS V14.01,2013-08-02 10:41:00,
2013-08-02 06:46:00,59.9,53.4,31.87,ESE,113,0.0,0.0,79,0.00,,,0.00,VWS V14.01,2013-08-02 10:46:00,
2013-08-02 06:52:00,60.1,53.6,31.87,ESE,113,0.0,0.0,79,0.00,,,0.00,VWS V14.01,2013-08-02 10:52:00,
2013-08-02 06:57:00,60.1,53.6,31.87,SE,142,0.0,0.0,79,0.00,,,0.00,VWS V14.01,2013-08-02 10:57:00,
2013-08-02 07:02:00,60.1,53.2,31.87,SE,142,0.0,0.0,78,0.00,,,0.00,VWS V14.01,2013-08-02 11:02:00,
2013-08-02 07:08:00,60.1,53.2,31.87,SSE,147,0.0,0.0,78,0.00,,,0.00,VWS V14.01,2013-08-02 11:08:00,
2013-08-02 07:13:00,60.3,53.4,31.87,ESE,114,0.0,0.0,78,0.00,,,0.00,VWS V14.01,2013-08-02 11:13:00,
2013-08-02 07:18:00,60.6,53.7,31.87,East,87,0.0,0.0,78,0.00,,,0.00,VWS V14.01,2013-08-02 11:18:00,
2013-08-02 07:24:00,60.8,53.9,31.87,South,190,0.0,0.0,78,0.00,,,0.00,VWS V14.01,2013-08-02 11:24:00,
2013-08-02 07:29:00,60.8,53.9,31.87,South,190,0.0,0.0,78,0.00,,,0.00,VWS V14.01,2013-08-02 11:29:00,
2013-08-02 07:34:00,60.6,53.7,31.87,South,190,0.0,0.0,78,0.00,,,0.00,VWS V14.01,2013-08-02 11:34:00,
2013-08-02 07:41:00,60.3,53.7,31.87,South,190,0.0,0.0,79,0.00,,,0.00,VWS V14.01,2013-08-02 11:41:00,
2013-08-02 07:47:00,60.1,53.6,31.87,South,190,0.0,0.0,79,0.04,,,0.04,VWS V14.01,2013-08-02 11:47:00,
2013-08-02 07:52:00,60.1,53.9,31.87,South,190,0.0,0.0,80,0.04,,,0.04,VWS V14.01,2013-08-02 11:52:00,
2013-08-02 07:57:00,60.1,54.2,31.87,South,190,0.0,0.0,81,0.04,,,0.04,VWS V14.01,2013-08-02 11:57:00,
2013-08-02 08:02:00,60.3,54.8,31.87,South,171,0.0,0.0,82,0.04,,,0.04,VWS V14.01,2013-08-02 12:02:00,
2013-08-02 08:07:00,60.1,54.6,31.87,East,90,0.0,0.0,82,0.04,,,0.04,VWS V14.01,2013-08-02 12:07:00,
2013-08-02 08:12:00,60.1,54.6,31.87,NE,51,0.0,0.0,82,0.04,,,0.04,VWS V14.01,2013-08-02 12:12:00,
2013-08-02 08:17:00,60.3,55.1,31.87,SW,217,6.7,11.2,83,0.04,,,0.04,VWS V14.01,2013-08-02 12:17:00,
2013-08-02 08:26:00,60.1,54.9,31.87,WNW,298,0.0,0.0,83,0.08,,,0.08,VWS V14.01,2013-08-02 12:26:00,
2013-08-02 08:31:00,60.3,55.1,31.87,WNW,298,0.0,0.0,83,0.12,,,0.12,VWS V14.01,2013-08-02 12:31:00,
2013-08-02 08:37:00,60.3,55.4,31.87,WNW,298,0.0,0.0,84,0.12,,,0.12,VWS V14.01,2013-08-02 12:37:00,
2013-08-02 08:42:00,60.1,55.2,31.87,WNW,298,0.0,0.0,84,0.12,,,0.12,VWS V14.01,2013-08-02 12:42:00,
2013-08-02 08:48:00,60.1,55.2,31.87,South,175,0.0,0.0,84,0.08,,,0.12,VWS V14.01,2013-08-02 12:48:00,
2013-08-02 08:53:00,60.1,55.2,31.87,South,175,0.0,0.0,84,0.12,,,0.16,VWS V14.01,2013-08-02 12:53:00,
2013-08-02 08:59:00,59.9,55.4,31.87,South,175,0.0,0.0,85,0.12,,,0.16,VWS V14.01,2013-08-02 12:59:00,
2013-08-02 09:06:00,59.9,55.7,31.87,SSW,210,0.0,0.0,86,0.12,,,0.16,VWS V14.01,2013-08-02 13:06:00,
2013-08-02 09:12:00,60.1,55.9,31.87,SSW,210,0.0,0.0,86,0.16,,,0.20,VWS V14.01,2013-08-02 13:12:00,
2013-08-02 09:17:00,60.1,55.9,31.87,SSW,210,0.0,0.0,86,0.16,,,0.20,VWS V14.01,2013-08-02 13:17:00,
2013-08-02 09:23:00,60.1,56.2,31.87,ESE,115,0.0,0.0,87,0.20,,,0.24,VWS V14.01,2013-08-02 13:23:00,
2013-08-02 09:28:00,60.1,56.2,31.87,SSW,204,0.0,0.0,87,0.16,,,0.24,VWS V14.01,2013-08-02 13:28:00,
2013-08-02 09:34:00,60.4,56.9,31.87,SSW,204,0.0,0.0,88,0.12,,,0.24,VWS V14.01,2013-08-02 13:34:00,
2013-08-02 09:40:00,60.6,57.4,31.87,SSW,204,0.0,0.0,89,0.12,,,0.24,VWS V14.01,2013-08-02 13:40:00,
2013-08-02 09:46:00,60.6,57.7,31.87,SSW,204,0.0,0.0,90,0.12,,,0.24,VWS V14.01,2013-08-02 13:46:00,
2013-08-02 09:52:00,60.6,57.7,31.87,SSW,204,0.0,0.0,90,0.08,,,0.24,VWS V14.01,2013-08-02 13:52:00,
2013-08-02 09:58:00,60.6,58.0,31.87,SSW,204,0.0,0.0,91,0.08,,,0.24,VWS V14.01,2013-08-02 13:58:00,
2013-08-02 10:03:00,60.8,58.2,31.87,SSW,204,0.0,0.0,91,0.12,,,0.28,VWS V14.01,2013-08-02 14:03:00,
2013-08-02 10:09:00,61.0,58.3,31.87,ESE,117,0.0,0.0,91,0.08,,,0.28,VWS V14.01,2013-08-02 14:09:00,
2013-08-02 10:14:00,61.0,58.3,31.87,East,94,0.0,0.0,91,0.08,,,0.28,VWS V14.01,2013-08-02 14:14:00,
2013-08-02 10:21:00,61.3,59.0,31.87,SSE,156,0.0,6.7,92,0.04,,,0.28,VWS V14.01,2013-08-02 14:21:00,
2013-08-02 10:26:00,62.1,59.7,31.87,SSW,192,0.0,6.7,92,0.04,,,0.28,VWS V14.01,2013-08-02 14:26:00,
2013-08-02 10:32:00,63.1,60.8,31.87,South,173,4.0,6.7,92,0.04,,,0.28,VWS V14.01,2013-08-02 14:32:00,
2013-08-02 10:37:00,63.0,60.6,31.87,SE,143,5.4,8.9,92,0.04,,,0.28,VWS V14.01,2013-08-02 14:37:00,
2013-08-02 10:42:00,63.1,61.1,31.87,ESE,107,4.0,6.7,93,0.04,,,0.28,VWS V14.01,2013-08-02 14:42:00,
2013-08-02 10:48:00,63.5,61.4,31.87,ESE,110,4.0,6.7,93,0.04,,,0.28,VWS V14.01,2013-08-02 14:48:00,
2013-08-02 10:53:00,63.3,61.3,31.87,SSE,159,4.0,7.8,93,0.04,,,0.28,VWS V14.01,2013-08-02 14:53:00,
2013-08-02 10:59:00,63.1,61.1,31.87,WSW,253,5.4,11.2,93,0.04,,,0.28,VWS V14.01,2013-08-02 14:59:00,
2013-08-02 11:04:00,63.1,61.1,31.87,SSW,197,4.7,7.8,93,0.00,,,0.28,VWS V14.01,2013-08-02 15:04:00,
2013-08-02 11:09:00,63.1,61.1,31.87,South,175,0.0,7.8,93,0.00,,,0.28,VWS V14.01,2013-08-02 15:09:00,
2013-08-02 11:16:00,63.3,61.3,31.87,SSE,168,4.7,7.8,93,0.00,,,0.28,VWS V14.01,2013-08-02 15:16:00,
2013-08-02 11:21:00,63.3,61.3,31.87,ESE,110,5.4,12.3,93,0.00,,,0.28,VWS V14.01,2013-08-02 15:21:00,
2013-08-02 11:27:00,63.1,61.1,31.87,SSE,156,4.0,6.7,93,0.00,,,0.28,VWS V14.01,2013-08-02 15:27:00,
2013-08-02 11:33:00,63.1,60.8,31.87,SSE,157,6.7,11.2,92,0.00,,,0.28,VWS V14.01,2013-08-02 15:33:00,
2013-08-02 11:38:00,63.3,61.0,31.87,SSE,166,0.0,7.8,92,0.00,,,0.28,VWS V14.01,2013-08-02 15:38:00,
2013-08-02 11:44:00,63.5,61.1,31.87,ESE,117,4.7,10.1,92,0.00,,,0.28,VWS V14.01,2013-08-02 15:44:00,
2013-08-02 11:51:00,63.5,61.1,31.87,SSE,157,6.0,10.1,92,0.00,,,0.28,VWS V14.01,2013-08-02 15:51:00,
2013-08-02 11:57:00,63.7,61.3,31.87,SE,136,4.7,13.4,92,0.00,,,0.28,VWS V14.01,2013-08-02 15:57:00,
2013-08-02 12:03:00,63.9,61.5,31.87,SSE,161,4.7,19.0,92,0.00,,,0.28,VWS V14.01,2013-08-02 16:03:00,
2013-08-02 12:09:00,63.7,61.3,31.87,South,170,4.7,7.8,92,0.00,,,0.28,VWS V14.01,2013-08-02 16:09:00,
2013-08-02 12:14:00,63.9,61.5,31.87,South,187,4.0,6.7,92,0.00,,,0.28,VWS V14.01,2013-08-02 16:14:00,
2013-08-02 12:19:00,63.9,61.2,31.87,ESE,118,5.4,8.9,91,0.00,,,0.28,VWS V14.01,2013-08-02 16:19:00,
2013-08-02 12:26:00,64.2,61.5,31.87,SSE,155,4.7,10.1,91,0.00,,,0.28,VWS V14.01,2013-08-02 16:26:00,
2013-08-02 12:31:00,64.0,61.4,31.87,SE,140,0.0,14.5,91,0.00,,,0.28,VWS V14.01,2013-08-02 16:31:00,
2013-08-02 12:37:00,64.0,61.4,31.87,SSW,213,4.0,10.1,91,0.00,,,0.28,VWS V14.01,2013-08-02 16:37:00,
2013-08-02 12:42:00,64.8,62.1,31.87,East,96,3.4,13.4,91,0.00,,,0.28,VWS V14.01,2013-08-02 16:42:00,
2013-08-02 12:47:00,65.8,63.1,31.87,SSE,162,0.0,0.0,91,0.00,,,0.28,VWS V14.01,2013-08-02 16:47:00,
2013-08-02 12:53:00,65.7,63.0,31.87,South,187,6.0,10.1,91,0.00,,,0.28,VWS V14.01,2013-08-02 16:53:00,
2013-08-02 12:58:00,65.5,62.8,31.87,SE,143,5.4,8.9,91,0.00,,,0.28,VWS V14.01,2013-08-02 16:58:00,
2013-08-02 13:04:00,65.1,62.1,31.87,South,174,6.0,13.4,90,0.00,,,0.28,VWS V14.01,2013-08-02 17:04:00,
2013-08-02 13:09:00,65.5,62.5,31.87,SSE,163,0.0,6.7,90,0.00,,,0.28,VWS V14.01,2013-08-02 17:09:00,
2013-08-02 13:17:00,66.6,63.9,31.87,WNW,293,0.0,0.0,91,0.00,,,0.28,VWS V14.01,2013-08-02 17:17:00,
2013-08-02 13:22:00,66.7,64.0,31.87,East,94,4.0,10.1,91,0.00,,,0.28,VWS V14.01,2013-08-02 17:22:00,
2013-08-02 13:27:00,67.1,64.4,31.87,South,181,0.0,6.7,91,0.00,,,0.28,VWS V14.01,2013-08-02 17:27:00,
2013-08-02 13:33:00,67.3,64.6,31.87,SSW,199,5.4,8.9,91,0.00,,,0.28,VWS V14.01,2013-08-02 17:33:00,
2013-08-02 13:37:00,67.8,65.4,31.87,SSE,148,0.0,8.9,92,0.00,,,0.28,VWS V14.01,2013-08-02 17:37:00,
2013-08-02 13:44:00,67.5,64.8,31.87,SE,144,5.4,10.1,91,0.00,,,0.28,VWS V14.01,2013-08-02 17:44:00,
2013-08-02 13:49:00,68.9,66.2,31.87,NE,46,4.7,10.1,91,0.00,,,0.28,VWS V14.01,2013-08-02 17:49:00,
2013-08-02 13:55:00,70.0,66.9,31.87,South,170,3.4,5.6,90,0.00,,,0.28,VWS V14.01,2013-08-02 17:55:00,
2013-08-02 14:00:00,72.1,69.1,31.87,SSE,163,0.0,7.8,90,0.00,,,0.28,VWS V14.01,2013-08-02 18:00:00,
2013-08-02 14:05:00,72.9,69.8,31.87,South,186,4.7,11.2,90,0.00,,,0.28,VWS V14.01,2013-08-02 18:05:00,
2013-08-02 14:10:00,72.3,68.6,31.87,WNW,284,0.0,8.9,88,0.00,,,0.28,VWS V14.01,2013-08-02 18:10:00,
2013-08-02 14:15:00,74.1,70.0,31.87,SE,135,0.0,0.0,87,0.00,,,0.28,VWS V14.01,2013-08-02 18:15:00,
2013-08-02 14:20:00,74.5,70.0,31.87,SSW,193,0.0,7.8,86,0.00,,,0.28,VWS V14.01,2013-08-02 18:20:00,
2013-08-02 14:25:00,73.6,68.8,31.87,SSW,199,4.0,8.9,85,0.00,,,0.28,VWS V14.01,2013-08-02 18:25:00,
2013-08-02 14:30:00,73.2,67.8,31.87,SSE,159,0.0,6.7,83,0.00,,,0.28,VWS V14.01,2013-08-02 18:30:00,
2013-08-02 14:36:00,73.8,68.3,31.87,WNW,297,4.7,8.9,83,0.00,,,0.28,VWS V14.01,2013-08-02 18:36:00,
2013-08-02 14:42:00,73.4,67.2,31.87,SE,128,3.4,11.2,81,0.00,,,0.28,VWS V14.01,2013-08-02 18:42:00,
2013-08-02 14:48:00,74.5,68.3,31.87,SSE,165,3.4,5.6,81,0.00,,,0.28,VWS V14.01,2013-08-02 18:48:00,
2013-08-02 14:53:00,74.5,67.9,31.87,ENE,59,0.0,0.0,80,0.00,,,0.28,VWS V14.01,2013-08-02 18:53:00,
2013-08-02 14:58:00,74.5,67.9,31.87,SE,139,6.0,10.1,80,0.00,,,0.28,VWS V14.01,2013-08-02 18:58:00,
2013-08-02 15:03:00,74.5,67.9,31.87,ESE,116,4.0,7.8,80,0.00,,,0.28,VWS V14.01,2013-08-02 19:03:00,
2013-08-02 15:09:00,76.1,69.5,31.87,South,187,0.0,0.0,80,0.00,,,0.28,VWS V14.01,2013-08-02 19:09:00,
2013-08-02 15:14:00,77.5,70.5,31.87,South,186,0.0,6.7,79,0.00,,,0.28,VWS V14.01,2013-08-02 19:14:00,
2013-08-02 15:20:00,75.9,67.8,31.87,North,353,0.0,6.7,76,0.00,,,0.28,VWS V14.01,2013-08-02 19:20:00,
2013-08-02 15:25:00,75.4,66.9,31.87,SE,141,3.4,6.7,75,0.00,,,0.28,VWS V14.01,2013-08-02 19:25:00,
2013-08-02 15:30:00,74.7,66.6,31.87,South,190,0.0,5.6,76,0.00,,,0.28,VWS V14.01,2013-08-02 19:30:00,
2013-08-02 15:35:00,74.1,65.7,31.87,WNW,303,0.0,6.7,75,0.00,,,0.28,VWS V14.01,2013-08-02 19:35:00,
2013-08-02 15:41:00,74.1,66.5,31.87,East,82,0.0,10.1,77,0.00,,,0.28,VWS V14.01,2013-08-02 19:41:00,
2013-08-02 15:46:00,74.1,64.9,31.87,NE,44,0.0,6.7,73,0.00,,,0.28,VWS V14.01,2013-08-02 19:46:00,
2013-08-02 15:52:00,74.3,66.6,31.87,West,270,3.4,7.8,77,0.00,,,0.28,VWS V14.01,2013-08-02 19:52:00,
2013-08-02 15:58:00,74.3,66.2,31.87,West,272,4.7,7.8,76,0.00,,,0.28,VWS V14.01,2013-08-02 19:58:00,
2013-08-02 16:03:00,74.7,65.0,31.87,NNW,337,3.4,10.1,72,0.00,,,0.28,VWS V14.01,2013-08-02 20:03:00,
2013-08-02 16:08:00,75.4,66.9,31.87,North,357,0.0,7.8,75,0.00,,,0.28,VWS V14.01,2013-08-02 20:08:00,
2013-08-02 16:14:00,76.1,68.8,31.87,SW,233,0.0,0.0,78,0.00,,,0.28,VWS V14.01,2013-08-02 20:14:00,
2013-08-02 16:20:00,77.0,69.2,31.87,NNW,334,5.4,8.9,77,0.00,,,0.28,VWS V14.01,2013-08-02 20:20:00,
2013-08-02 16:25:00,77.9,70.5,31.87,SSW,209,0.0,0.0,78,0.00,,,0.28,VWS V14.01,2013-08-02 20:25:00,
2013-08-02 16:31:00,78.1,70.7,31.87,South,191,0.0,0.0,78,0.00,,,0.28,VWS V14.01,2013-08-02 20:31:00,
2013-08-02 16:38:00,79.7,71.9,31.87,WNW,301,0.0,0.0,77,0.00,,,0.28,VWS V14.01,2013-08-02 20:38:00,
2013-08-02 16:43:00,79.5,70.9,31.87,WNW,301,0.0,0.0,75,0.00,,,0.28,VWS V14.01,2013-08-02 20:43:00,
2013-08-02 16:49:00,80.1,71.0,31.87,SSW,194,0.0,6.7,74,0.00,,,0.28,VWS V14.01,2013-08-02 20:49:00,
2013-08-02 16:55:00,80.6,70.3,31.87,SW,224,0.0,0.0,71,0.00,,,0.28,VWS V14.01,2013-08-02 20:55:00,
2013-08-02 17:00:00,81.5,70.8,31.87,SSE,152,0.0,0.0,70,0.00,,,0.28,VWS V14.01,2013-08-02 21:00:00,
2013-08-02 17:05:00,82.4,71.2,31.87,WNW,299,3.4,5.6,69,0.00,,,0.28,VWS V14.01,2013-08-02 21:05:00,
2013-08-02 17:11:00,83.3,71.2,31.87,WSW,250,0.0,0.0,67,0.00,,,0.28,VWS V14.01,2013-08-02 21:11:00,
2013-08-02 17:16:00,83.7,70.7,31.87,NNW,334,4.0,10.1,65,0.00,,,0.28,VWS V14.01,2013-08-02 21:16:00,
2013-08-02 17:20:00,83.7,69.7,31.87,WNW,283,0.0,8.9,63,0.00,,,0.28,VWS V14.01,2013-08-02 21:20:00,
2013-08-02 17:26:00,84.2,69.8,31.87,NW,319,0.0,8.9,62,0.00,,,0.28,VWS V14.01,2013-08-02 21:26:00,
2013-08-02 17:31:00,83.7,68.8,31.87,WNW,294,4.7,8.9,61,0.00,,,0.28,VWS V14.01,2013-08-02 21:31:00,
2013-08-02 17:37:00,84.0,69.1,31.87,NW,308,4.0,6.7,61,0.00,,,0.28,VWS V14.01,2013-08-02 21:37:00,
2013-08-02 17:42:00,85.1,70.2,31.87,NW,306,0.0,6.7,61,0.00,,,0.28,VWS V14.01,2013-08-02 21:42:00,
2013-08-02 17:49:00,85.8,69.3,31.87,NW,309,4.7,8.9,58,0.00,,,0.28,VWS V14.01,2013-08-02 21:49:00,
2013-08-02 17:54:00,85.1,66.6,31.87,NNW,331,3.4,5.6,54,0.00,,,0.28,VWS V14.01,2013-08-02 21:54:00,
2013-08-02 18:00:00,82.9,62.4,31.87,WNW,302,4.7,10.1,50,0.00,,,0.28,VWS V14.01,2013-08-02 22:00:00,
2013-08-02 18:04:00,83.1,62.6,31.87,NNW,330,5.4,8.9,50,0.00,,,0.28,VWS V14.01,2013-08-02 22:04:00,
2013-08-02 18:10:00,82.0,61.0,31.87,North,357,0.0,7.8,49,0.00,,,0.28,VWS V14.01,2013-08-02 22:10:00,
2013-08-02 18:16:00,82.4,61.9,31.87,WNW,299,4.7,8.9,50,0.00,,,0.28,VWS V14.01,2013-08-02 22:16:00,
2013-08-02 18:21:00,82.0,61.6,31.87,NW,319,6.0,10.1,50,0.00,,,0.28,VWS V14.01,2013-08-02 22:21:00,
2013-08-02 18:26:00,81.7,61.2,31.87,North,353,4.0,10.1,50,0.00,,,0.28,VWS V14.01,2013-08-02 22:26:00,
2013-08-02 18:33:00,80.6,59.7,31.87,NNW,329,5.4,8.9,49,0.00,,,0.28,VWS V14.01,2013-08-02 22:33:00,
2013-08-02 18:38:00,80.2,59.9,31.87,NW,308,4.0,6.7,50,0.00,,,0.28,VWS V14.01,2013-08-02 22:38:00,
2013-08-02 18:44:00,80.1,60.3,31.87,WNW,302,5.4,8.9,51,0.00,,,0.28,VWS V14.01,2013-08-02 22:44:00,
2013-08-02 18:50:00,80.1,59.8,31.87,NW,325,3.4,8.9,50,0.00,,,0.28,VWS V14.01,2013-08-02 22:50:00,
2013-08-02 18:55:00,79.3,59.1,31.87,NW,304,4.0,10.1,50,0.00,,,0.28,VWS V14.01,2013-08-02 22:55:00,
2013-08-02 19:00:00,78.8,58.6,31.87,WNW,302,4.7,8.9,50,0.00,,,0.28,VWS V14.01,2013-08-02 23:00:00,
2013-08-02 19:06:00,78.3,58.7,31.87,WNW,298,4.0,10.1,51,0.00,,,0.28,VWS V14.01,2013-08-02 23:06:00,
2013-08-02 19:12:00,77.9,58.9,31.87,WNW,299,0.0,7.8,52,0.00,,,0.28,VWS V14.01,2013-08-02 23:12:00,
2013-08-02 19:17:00,77.5,59.1,31.87,WNW,299,0.0,0.0,53,0.00,,,0.28,VWS V14.01,2013-08-02 23:17:00,
2013-08-02 19:22:00,77.2,59.3,31.87,WNW,299,0.0,0.0,54,0.00,,,0.28,VWS V14.01,2013-08-02 23:22:00,
2013-08-02 19:28:00,76.6,58.8,31.87,NW,316,0.0,5.6,54,0.00,,,0.28,VWS V14.01,2013-08-02 23:28:00,
2013-08-02 19:34:00,76.1,58.8,31.87,NNW,337,3.4,10.1,55,0.00,,,0.28,VWS V14.01,2013-08-02 23:34:00,
2013-08-02 19:40:00,75.7,58.4,31.87,NNW,328,0.0,0.0,55,0.00,,,0.28,VWS V14.01,2013-08-02 23:40:00,
2013-08-02 19:45:00,75.4,58.6,31.87,NNW,328,0.0,0.0,56,0.00,,,0.28,VWS V14.01,2013-08-02 23:45:00,
2013-08-02 19:51:00,75.0,58.3,31.87,NNW,327,0.0,0.0,56,0.00,,,0.28,VWS V14.01,2013-08-02 23:51:00,
2013-08-02 19:57:00,74.5,58.3,31.87,NNW,328,0.0,0.0,57,0.00,,,0.28,VWS V14.01,2013-08-02 23:57:00,
2013-08-02 20:03:00,74.1,57.9,31.87,NNW,328,0.0,0.0,57,0.00,,,0.28,VWS V14.01,2013-08-03 00:03:00,
2013-08-02 20:09:00,73.8,58.1,31.87,NNW,328,0.0,0.0,58,0.00,,,0.28,VWS V14.01,2013-08-03 00:09:00,
2013-08-02 20:15:00,73.2,58.0,31.87,NNW,328,0.0,0.0,59,0.00,,,0.28,VWS V14.01,2013-08-03 00:15:00,
2013-08-02 20:20:00,72.9,58.2,31.87,NNW,328,0.0,0.0,60,0.00,,,0.28,VWS V14.01,2013-08-03 00:20:00,
2013-08-02 20:25:00,72.5,58.3,31.87,NNW,328,0.0,0.0,61,0.00,,,0.28,VWS V14.01,2013-08-03 00:25:00,
2013-08-02 20:30:00,71.8,58.1,31.87,NNW,328,0.0,0.0,62,0.00,,,0.28,VWS V14.01,2013-08-03 00:30:00,
2013-08-02 20:36:00,71.4,58.2,31.87,NNW,328,0.0,0.0,63,0.00,,,0.28,VWS V14.01,2013-08-03 00:36:00,
2013-08-02 20:41:00,70.7,57.9,31.87,NNW,328,0.0,0.0,64,0.00,,,0.28,VWS V14.01,2013-08-03 00:41:00,
2013-08-02 20:46:00,70.3,58.0,31.87,NNW,328,0.0,0.0,65,0.00,,,0.28,VWS V14.01,2013-08-03 00:46:00,
2013-08-02 20:52:00,69.8,57.9,31.87,NNW,328,0.0,0.0,66,0.00,,,0.28,VWS V14.01,2013-08-03 00:52:00,
2013-08-02 20:57:00,69.6,58.2,31.87,NNW,328,0.0,0.0,67,0.00,,,0.28,VWS V14.01,2013-08-03 00:57:00,
2013-08-02 21:02:00,69.3,57.8,31.87,NNW,328,0.0,0.0,67,0.00,,,0.28,VWS V14.01,2013-08-03 01:02:00,
2013-08-02 21:08:00,68.9,57.9,31.87,NNW,328,0.0,0.0,68,0.00,,,0.28,VWS V14.01,2013-08-03 01:08:00,
2013-08-02 21:13:00,68.7,58.2,31.87,NNW,328,0.0,0.0,69,0.00,,,0.28,VWS V14.01,2013-08-03 01:13:00,
2013-08-02 21:18:00,68.5,58.0,31.87,NNW,328,0.0,577.1,69,0.00,,,0.28,VWS V14.01,2013-08-03 01:18:00,
2013-08-02 21:22:00,68.2,58.0,31.87,NNW,328,0.0,0.0,70,0.00,,,0.28,VWS V14.01,2013-08-03 01:22:00,
2013-08-02 21:28:00,68.2,58.0,31.87,NNW,328,0.0,0.0,70,0.00,,,0.28,VWS V14.01,2013-08-03 01:28:00,
2013-08-02 21:33:00,68.0,58.3,31.87,NNW,328,0.0,0.0,71,0.00,,,0.28,VWS V14.01,2013-08-03 01:33:00,
2013-08-02 21:39:00,67.6,57.9,31.87,NNW,328,0.0,0.0,71,0.00,,,0.28,VWS V14.01,2013-08-03 01:39:00,
2013-08-02 21:46:00,67.5,58.1,31.87,NNW,328,0.0,0.0,72,0.00,,,0.28,VWS V14.01,2013-08-03 01:46:00,
2013-08-02 21:51:00,67.3,58.3,31.87,NNW,328,0.0,0.0,73,0.00,,,0.28,VWS V14.01,2013-08-03 01:51:00,
2013-08-02 21:58:00,67.1,58.2,31.87,NNW,328,0.0,0.0,73,0.00,,,0.28,VWS V14.01,2013-08-03 01:58:00,
2013-08-02 22:03:00,67.1,58.5,31.87,NNW,328,0.0,0.0,74,0.00,,,0.28,VWS V14.01,2013-08-03 02:03:00,
2013-08-02 22:08:00,66.9,58.8,31.87,NNW,328,0.0,0.0,75,0.00,,,0.28,VWS V14.01,2013-08-03 02:08:00,
2013-08-02 22:14:00,66.7,58.6,31.87,NNW,328,0.0,0.0,75,0.00,,,0.28,VWS V14.01,2013-08-03 02:14:00,
2013-08-02 22:18:00,66.6,58.8,31.87,NNW,328,0.0,0.0,76,0.00,,,0.28,VWS V14.01,2013-08-03 02:18:00,
2013-08-02 22:24:00,66.4,58.6,31.87,NNW,328,0.0,0.0,76,0.00,,,0.28,VWS V14.01,2013-08-03 02:24:00,
2013-08-02 22:29:00,66.4,59.0,31.87,NNW,328,0.0,0.0,77,0.00,,,0.28,VWS V14.01,2013-08-03 02:29:00,
2013-08-02 22:35:00,66.0,58.6,31.87,NNW,328,0.0,577.1,77,0.00,,,0.28,VWS V14.01,2013-08-03 02:35:00,
2013-08-02 22:41:00,66.0,58.6,31.87,NNW,328,0.0,0.0,77,0.00,,,0.28,VWS V14.01,2013-08-03 02:41:00,
2013-08-02 22:46:00,65.8,58.8,31.87,NNW,328,0.0,0.0,78,0.00,,,0.28,VWS V14.01,2013-08-03 02:46:00,
2013-08-02 22:51:00,65.8,58.8,31.87,NNW,328,0.0,0.0,78,0.00,,,0.28,VWS V14.01,2013-08-03 02:51:00,
2013-08-02 22:57:00,65.7,58.6,31.87,NNW,328,0.0,0.0,78,0.00,,,0.28,VWS V14.01,2013-08-03 02:57:00,
2013-08-02 23:02:00,65.7,58.6,31.87,NNW,328,0.0,0.0,78,0.00,,,0.28,VWS V14.01,2013-08-03 03:02:00,
2013-08-02 23:07:00,65.7,59.0,31.87,NNW,328,0.0,0.0,79,0.00,,,0.28,VWS V14.01,2013-08-03 03:07:00,
2013-08-02 23:13:00,65.5,58.8,31.87,NNW,328,0.0,0.0,79,0.00,,,0.28,VWS V14.01,2013-08-03 03:13:00,
2013-08-02 23:19:00,65.7,59.0,31.87,NNW,328,0.0,0.0,79,0.00,,,0.28,VWS V14.01,2013-08-03 03:19:00,
2013-08-02 23:24:00,65.5,59.2,31.87,NNE,28,0.0,581.0,80,0.00,,,0.28,VWS V14.01,2013-08-03 03:24:00,
2013-08-02 23:31:00,65.5,59.2,31.87,NNW,328,0.0,0.0,80,0.00,,,0.28,VWS V14.01,2013-08-03 03:31:00,
2013-08-02 23:36:00,65.5,59.2,31.87,NNW,328,0.0,0.0,80,0.00,,,0.28,VWS V14.01,2013-08-03 03:36:00,
2013-08-02 23:41:00,65.5,59.2,31.87,NNW,328,0.0,0.0,80,0.00,,,0.28,VWS V14.01,2013-08-03 03:41:00,
2013-08-02 23:47:00,65.5,59.2,31.87,NNW,328,0.0,0.0,80,0.00,,,0.28,VWS V14.01,2013-08-03 03:47:00,
2013-08-02 23:53:00,65.5,59.5,31.87,NNW,328,0.0,0.0,81,0.00,,,0.28,VWS V14.01,2013-08-03 03:53:00,
2013-08-02 23:58:00,65.3,59.3,31.87,NNW,328,0.0,0.0,81,0.00,,,0.28,VWS V14.01,2013-08-03 03:58:00,